Time;durP1;ratioP1;P1;durP2;ratioP2;P2;SDS_P1;SDS_P2;PMS_P1;PMS_P2;Temp;Humidity;BMP_temperature;BMP_pressure;BME280_temperature;BME280_humidity;BME280_pressure;Samples;Min_cycle;Max_cycle;Signal;HPM_P1;HPM_P2
2023/09/01 04:00:22;;;;;;;;;;;;;;;12.33;74.94;100543.89;84825;1289;59584;-92
2023/09/01 06:42:57;;;;;;;;;;;;;;;22.78;73.02;100630.11;106230;1285;71823;-87
2023/09/01 06:46:02;;;;;;;;;;;;;;;23.42;72.58;100631.93;106381;1288;59254;-88
2023/09/01 06:49:16;;;;;;;;;;;;;;;24.00;72.08;100632.92;106465;1285;59258;-87
2023/09/01 06:52:42;;;;;;;;;;;;;;;24.61;71.49;100629.14;106501;1286;73383;-87
2023/09/01 06:55:48;;;;;;;;;;;;;;;25.16;71.56;100629.55;106515;1286;67979;-87
2023/09/01 06:58:55;;;;;;;;;;;;;;;25.46;71.20;100628.51;106317;1287;72089;-87
2023/09/01 08:14:43;;;;;;;;;;;;;;;34.15;61.81;100649.17;85516;1289;89792;-89
2023/09/01 08:23:21;;;;;;;;;;;;;;;33.05;61.30;100645.52;106502;1285;59755;-91
2023/09/01 08:32:11;;;;;;;;;;;;;;;30.18;60.88;100643.09;102123;1285;66314;-90
2023/09/01 08:35:36;;;;;;;;;;;;;;;30.27;61.09;100644.47;106553;1286;71452;-90
2023/09/01 08:39:03;;;;;;;;;;;;;;;30.24;59.62;100642.72;106529;1285;59212;-90
2023/09/01 08:52:23;;;;;;;;;;;;;;;24.42;59.06;100648.16;106588;1284;59361;-89
2023/09/01 09:29:26;;;;;;;;;;;;;;;20.85;57.40;100653.09;106533;1287;72387;-90
2023/09/01 09:32:23;;;;;;;;;;;;;;;20.74;57.33;100659.50;106648;1285;58928;-90
2023/09/01 09:38:01;;;;;;;;;;;;;;;20.47;57.12;100649.32;106377;1288;74427;-90
2023/09/01 09:41:29;;;;;;;;;;;;;;;20.39;57.11;100646.45;106049;1291;68619;-90
2023/09/01 09:56:03;;;;;;;;;;;;;;;20.06;56.99;100654.73;88069;1288;65652;-90
2023/09/01 10:25:02;;;;;;;;;;;;;;;18.94;56.88;100659.45;106459;1286;72422;-92
2023/09/01 10:33:49;;;;;;;;;;;;;;;19.04;56.95;100655.95;106626;1285;74465;-90
2023/09/01 11:17:43;;;;;;;;;;;;;;;19.93;56.80;100664.39;84633;1313;66656;-90
2023/09/01 11:20:46;;;;;;;;;;;;;;;19.92;56.62;100661.87;97186;1288;72004;-90
2023/09/01 11:52:25;;;;;;;;;;;;;;;20.00;56.53;100662.83;87634;1292;59584;-85
2023/09/01 11:55:26;;;;;;;;;;;;;;;20.00;56.51;100666.14;105675;1292;74243;-85
2023/09/01 11:58:13;;;;;;;;;;;;;;;19.96;56.38;100660.90;105818;1294;68180;-85
2023/09/01 12:01:16;;;;;;;;;;;;;;;19.97;56.34;100668.42;105684;1294;71314;-85
2023/09/01 12:04:16;;;;;;;;;;;;;;;20.03;56.59;100668.91;105714;1293;58974;-85
2023/09/01 12:07:11;;;;;;;;;;;;;;;20.09;56.61;100675.76;105731;1294;59385;-85
2023/09/01 12:09:57;;;;;;;;;;;;;;;20.10;56.51;100672.77;105862;1291;73203;-85
2023/09/01 12:13:00;;;;;;;;;;;;;;;20.12;56.42;100680.17;105903;1292;68262;-85
2023/09/01 12:15:55;;;;;;;;;;;;;;;20.10;56.38;100677.12;105838;1291;72577;-86
2023/09/01 12:18:43;;;;;;;;;;;;;;;20.11;56.40;100674.64;105933;1291;58997;-86
2023/09/01 12:21:39;;;;;;;;;;;;;;;20.12;56.18;100679.81;105948;1292;59862;-85
2023/09/01 12:24:25;;;;;;;;;;;;;;;20.08;56.13;100679.67;105966;1292;74427;-86
2023/09/01 12:27:11;;;;;;;;;;;;;;;20.06;56.08;100682.42;105881;1292;68129;-85
2023/09/01 12:29:57;;;;;;;;;;;;;;;20.06;56.29;100681.72;105963;1291;71103;-85
2023/09/01 12:32:43;;;;;;;;;;;;;;;20.11;56.32;100684.59;105851;1293;59364;-85
2023/09/01 12:35:29;;;;;;;;;;;;;;;20.17;56.27;100684.11;105936;1291;59142;-85
2023/09/01 12:38:16;;;;;;;;;;;;;;;20.18;56.16;100686.67;105881;1291;73439;-85
2023/09/01 12:41:02;;;;;;;;;;;;;;;20.19;55.88;100686.61;105895;1289;68130;-85
2023/09/01 12:44:08;;;;;;;;;;;;;;;20.21;56.06;100683.70;105980;1289;70438;-87
2023/09/01 12:47:34;;;;;;;;;;;;;;;20.22;55.98;100688.71;106220;1289;59274;-87
2023/09/01 12:50:42;;;;;;;;;;;;;;;20.22;56.07;100687.88;106222;1288;58933;-87
2023/09/01 12:54:08;;;;;;;;;;;;;;;20.24;56.00;100687.24;106217;1289;74298;-87
2023/09/01 12:57:33;;;;;;;;;;;;;;;20.25;55.88;100689.27;106108;1290;67721;-87
2023/09/01 13:00:59;;;;;;;;;;;;;;;20.30;55.92;100688.94;106025;1290;73126;-88
2023/09/01 13:04:26;;;;;;;;;;;;;;;20.38;55.61;100687.67;106117;1290;59308;-87
2023/09/01 13:07:51;;;;;;;;;;;;;;;20.47;55.74;100685.94;106109;1290;59024;-87
2023/09/01 13:11:17;;;;;;;;;;;;;;;20.55;55.63;100683.96;106074;1290;74668;-87
2023/09/01 13:14:40;;;;;;;;;;;;;;;20.60;55.76;100688.34;106146;1290;67485;-87
2023/09/01 13:18:07;;;;;;;;;;;;;;;20.54;55.54;100691.20;106105;1290;71516;-87
2023/09/01 13:21:14;;;;;;;;;;;;;;;20.54;55.51;100691.17;106124;1291;59026;-87
2023/09/01 13:24:40;;;;;;;;;;;;;;;20.56;55.60;100690.72;106104;1292;59264;-87
2023/09/01 13:28:05;;;;;;;;;;;;;;;20.62;55.69;100688.25;106013;1291;73330;-87
2023/09/01 13:31:11;;;;;;;;;;;;;;;20.75;55.81;100689.06;106129;1290;69019;-87
2023/09/01 13:34:17;;;;;;;;;;;;;;;20.89;55.64;100693.35;106008;1291;70749;-87
2023/09/01 13:37:30;;;;;;;;;;;;;;;20.98;55.43;100691.96;105975;1291;59339;-87
2023/09/01 13:40:40;;;;;;;;;;;;;;;20.98;55.21;100692.83;106134;1291;59953;-87
2023/09/01 13:44:05;;;;;;;;;;;;;;;20.90;55.06;100692.92;106135;1290;74483;-87
2023/09/01 13:47:31;;;;;;;;;;;;;;;20.79;55.12;100694.11;106104;1291;67889;-87
2023/09/01 13:50:37;;;;;;;;;;;;;;;20.71;55.24;100699.14;106109;1290;72612;-87
2023/09/01 13:54:03;;;;;;;;;;;;;;;20.70;55.33;100702.71;105971;1291;58970;-87
2023/09/01 13:57:10;;;;;;;;;;;;;;;20.69;55.10;100701.88;106029;1291;59855;-87
2023/09/01 14:00:16;;;;;;;;;;;;;;;20.67;55.03;100701.08;106134;1290;74464;-87
2023/09/01 14:03:42;;;;;;;;;;;;;;;20.70;55.02;100695.86;106114;1290;68520;-87
2023/09/01 14:06:48;;;;;;;;;;;;;;;20.68;54.95;100695.23;106128;1290;71847;-86
2023/09/01 14:09:39;;;;;;;;;;;;;;;20.60;54.97;100698.02;106005;1291;59040;-86
2023/09/01 14:12:46;;;;;;;;;;;;;;;20.53;54.80;100701.56;106009;1290;59020;-87
2023/09/01 14:15:48;;;;;;;;;;;;;;;20.49;54.85;100697.02;105987;1291;74060;-86
2023/09/01 14:18:38;;;;;;;;;;;;;;;20.48;54.83;100698.33;106151;1291;69839;-86
2023/09/01 14:21:32;;;;;;;;;;;;;;;20.44;54.70;100698.52;105889;1290;72429;-86
2023/09/01 14:24:22;;;;;;;;;;;;;;;20.35;54.62;100700.08;105967;1291;58913;-87
2023/09/01 14:27:10;;;;;;;;;;;;;;;20.26;54.57;100702.84;106006;1291;59556;-87
2023/09/01 14:30:00;;;;;;;;;;;;;;;20.19;54.55;100709.38;105990;1291;75360;-87
2023/09/01 14:33:04;;;;;;;;;;;;;;;20.13;54.61;100711.79;105967;1291;67658;-86
2023/09/01 14:36:07;;;;;;;;;;;;;;;20.11;54.66;100706.47;106052;1291;72489;-86
2023/09/01 14:39:01;;;;;;;;;;;;;;;20.12;54.66;100710.09;106111;1290;59350;-87
2023/09/01 14:42:04;;;;;;;;;;;;;;;20.13;54.49;100711.81;106036;1291;59032;-87
2023/09/01 14:44:50;;;;;;;;;;;;;;;20.10;54.68;100713.50;105643;1291;174908;-86
2023/09/01 14:47:37;;;;;;;;;;;;;;;20.04;54.46;100716.67;105983;1290;67442;-86
2023/09/01 14:50:25;;;;;;;;;;;;;;;19.95;54.45;100708.39;105964;1291;71121;-86
2023/09/01 14:53:11;;;;;;;;;;;;;;;19.88;54.33;100701.45;105929;1291;59234;-86
2023/09/01 14:56:06;;;;;;;;;;;;;;;19.86;54.44;100709.77;106006;1291;58855;-86
2023/09/01 14:58:55;;;;;;;;;;;;;;;19.87;54.47;100713.72;105997;1291;73181;-87
2023/09/01 15:02:04;;;;;;;;;;;;;;;19.87;54.41;100716.14;106117;1290;66152;-86
2023/09/01 15:04:52;;;;;;;;;;;;;;;19.88;54.29;100716.29;105915;1294;72746;-86
2023/09/01 15:07:39;;;;;;;;;;;;;;;19.91;54.30;100714.36;105959;1291;59000;-86
2023/09/01 15:10:26;;;;;;;;;;;;;;;19.97;54.19;100717.39;105971;1291;59702;-86
2023/09/01 15:13:12;;;;;;;;;;;;;;;20.00;54.03;100722.12;105952;1291;72258;-86
2023/09/01 15:16:00;;;;;;;;;;;;;;;20.02;54.15;100732.67;105978;1291;67486;-86
2023/09/01 15:18:47;;;;;;;;;;;;;;;19.99;54.10;100735.13;106106;1291;71415;-87
2023/09/01 15:21:33;;;;;;;;;;;;;;;19.94;54.18;100737.16;106009;1291;59039;-86
2023/09/01 15:24:19;;;;;;;;;;;;;;;19.87;54.12;100736.33;106068;1291;59985;-87
2023/09/01 15:27:14;;;;;;;;;;;;;;;19.78;54.13;100729.41;105946;1290;75523;-86
2023/09/01 15:30:00;;;;;;;;;;;;;;;19.72;54.28;100728.52;106039;1290;67360;-86
2023/09/01 15:32:46;;;;;;;;;;;;;;;19.68;54.28;100730.86;105946;1291;71276;-86
2023/09/01 15:35:33;;;;;;;;;;;;;;;19.62;54.31;100728.00;106067;1290;59138;-86
2023/09/01 15:38:19;;;;;;;;;;;;;;;19.57;54.29;100724.59;105990;1291;59381;-86
2023/09/01 15:41:13;;;;;;;;;;;;;;;19.53;54.30;100728.13;106107;1291;73112;-86
2023/09/01 15:44:02;;;;;;;;;;;;;;;19.48;54.27;100727.98;105930;1291;68278;-86
2023/09/01 15:46:48;;;;;;;;;;;;;;;19.43;54.24;100724.38;105988;1290;71399;-86
2023/09/01 15:49:53;;;;;;;;;;;;;;;19.39;54.19;100722.85;106069;1290;59491;-86
2023/09/01 15:53:19;;;;;;;;;;;;;;;19.35;54.34;100721.83;106005;1291;59782;-87
2023/09/01 15:56:45;;;;;;;;;;;;;;;19.32;54.46;100722.86;106102;1290;73311;-88
2023/09/01 16:00:11;;;;;;;;;;;;;;;19.27;54.51;100719.63;106052;1290;68523;-87
2023/09/01 16:03:37;;;;;;;;;;;;;;;19.23;54.50;100722.84;105687;1295;71575;-87
2023/09/01 16:07:03;;;;;;;;;;;;;;;19.15;54.56;100729.67;105651;1296;59180;-87
2023/09/01 16:10:07;;;;;;;;;;;;;;;19.09;54.51;100726.98;105651;1295;58697;-87
2023/09/01 16:13:33;;;;;;;;;;;;;;;19.06;54.67;100727.86;105484;1298;73249;-87
2023/09/01 16:16:59;;;;;;;;;;;;;;;19.03;54.63;100721.73;105493;1296;67502;-87
2023/09/01 16:20:26;;;;;;;;;;;;;;;19.01;54.74;100722.35;105574;1297;70301;-87
2023/09/01 16:23:32;;;;;;;;;;;;;;;18.99;54.85;100722.82;105439;1299;58976;-87
2023/09/01 16:26:39;;;;;;;;;;;;;;;18.97;54.92;100725.88;105513;1297;59024;-87
2023/09/01 16:30:06;;;;;;;;;;;;;;;18.93;55.09;100729.02;98142;1297;10002917;-87
2023/09/01 16:33:15;;;;;;;;;;;;;;;18.90;55.33;100731.79;105010;1302;59568;-87
2023/09/01 16:36:25;;;;;;;;;;;;;;;18.84;55.44;100731.73;105184;1302;59394;-87
2023/09/01 16:39:13;;;;;;;;;;;;;;;18.80;55.52;100736.30;105114;1302;73224;-87
2023/09/01 16:42:00;;;;;;;;;;;;;;;18.75;55.55;100734.45;105129;1301;67168;-87
2023/09/01 16:45:26;;;;;;;;;;;;;;;18.70;55.56;100735.41;105151;1301;70665;-87
2023/09/01 16:48:52;;;;;;;;;;;;;;;18.66;55.92;100739.79;105155;1302;59090;-87
2023/09/01 16:52:06;;;;;;;;;;;;;;;18.60;55.98;100738.85;105391;1298;59823;-87
2023/09/01 16:55:12;;;;;;;;;;;;;;;18.53;56.06;100738.10;105428;1299;74388;-86
2023/09/01 16:58:35;;;;;;;;;;;;;;;18.45;56.13;100739.33;104815;1305;67262;-87
2023/09/01 17:01:42;;;;;;;;;;;;;;;18.39;56.32;100736.14;104802;1306;71251;-87
2023/09/01 17:05:11;;;;;;;;;;;;;;;18.34;56.10;100731.99;104780;1305;59047;-87
2023/09/01 17:07:58;;;;;;;;;;;;;;;18.27;56.10;100734.41;104817;1307;59080;-87
2023/09/01 17:11:24;;;;;;;;;;;;;;;18.22;56.27;100742.15;105397;1299;74252;-87
2023/09/01 17:14:50;;;;;;;;;;;;;;;18.12;56.30;100739.84;105451;1299;66594;-87
2023/09/01 17:17:56;;;;;;;;;;;;;;;18.05;56.63;100740.14;105452;1298;71500;-87
2023/09/01 17:21:12;;;;;;;;;;;;;;;18.01;56.57;100739.46;105434;1299;59246;-87
2023/09/01 17:24:38;;;;;;;;;;;;;;;17.96;56.71;100739.36;105502;1298;58980;-87
2023/09/01 17:27:44;;;;;;;;;;;;;;;17.89;56.74;100754.85;105528;1298;73494;-87
2023/09/01 17:31:07;;;;;;;;;;;;;;;17.77;56.75;100752.20;105488;1299;67486;-87
2023/09/01 17:34:13;;;;;;;;;;;;;;;17.67;56.99;100750.92;105597;1294;72798;-87
2023/09/01 17:37:38;;;;;;;;;;;;;;;17.62;56.96;100755.83;105979;1291;59089;-87
2023/09/01 17:40:44;;;;;;;;;;;;;;;17.56;57.04;100761.15;106099;1291;58931;-87
2023/09/01 17:44:10;;;;;;;;;;;;;;;17.47;57.09;100762.05;106107;1290;72402;-88
2023/09/01 17:47:16;;;;;;;;;;;;;;;17.35;57.21;100766.73;106121;1290;67409;-87
2023/09/01 17:50:22;;;;;;;;;;;;;;;17.26;57.53;100765.02;106095;1290;72605;-87
2023/09/01 17:53:29;;;;;;;;;;;;;;;17.19;57.48;100773.13;105942;1291;59394;-87
2023/09/01 17:56:54;;;;;;;;;;;;;;;17.12;57.71;100778.49;106137;1290;59027;-87
2023/09/01 18:00:05;;;;;;;;;;;;;;;17.04;57.76;100783.71;106115;1290;73388;-88
2023/09/01 18:06:06;;;;;;;;;;;;;;;16.89;57.85;100786.36;106212;1293;71246;-88
2023/09/01 18:09:32;;;;;;;;;;;;;;;16.81;58.01;100788.93;106178;1290;59937;-89
2023/09/01 18:12:31;;;;;;;;;;;;;;;16.75;58.15;100796.15;106152;1290;58908;-89
2023/09/01 18:17:58;;;;;;;;;;;;;;;16.65;58.23;100797.24;106366;1288;67565;-89
2023/09/01 18:23:29;;;;;;;;;;;;;;;16.58;58.32;100808.98;106355;1288;59373;-89
2023/09/01 18:53:18;;;;;;;;;;;;;;;16.12;59.30;100811.39;105325;1292;59010;-89
2023/09/01 19:52:28;;;;;;;;;;;;;;;15.49;60.85;100852.83;91208;1290;81395;-85
2023/09/01 19:55:17;;;;;;;;;;;;;;;15.46;60.96;100853.10;105941;1290;60084;-85
2023/09/01 19:58:03;;;;;;;;;;;;;;;15.42;60.90;100850.98;105977;1291;59745;-85
2023/09/01 20:00:50;;;;;;;;;;;;;;;15.40;60.95;100851.22;106098;1288;73433;-85
2023/09/01 20:03:36;;;;;;;;;;;;;;;15.39;61.02;100853.67;106025;1288;68295;-85
2023/09/01 20:06:24;;;;;;;;;;;;;;;15.38;61.05;100853.71;106005;1290;72301;-85
2023/09/01 20:09:13;;;;;;;;;;;;;;;15.36;61.22;100856.38;106074;1288;59057;-85
2023/09/01 20:11:59;;;;;;;;;;;;;;;15.30;61.38;100856.56;106043;1289;59110;-85
2023/09/01 20:14:45;;;;;;;;;;;;;;;15.26;61.41;100858.43;106055;1288;72729;-85
2023/09/01 20:17:32;;;;;;;;;;;;;;;15.22;61.40;100859.42;106229;1290;68372;-85
2023/09/01 20:20:18;;;;;;;;;;;;;;;15.19;61.43;100858.65;106071;1289;72273;-86
2023/09/01 20:23:05;;;;;;;;;;;;;;;15.15;61.42;100858.95;106107;1290;59158;-85
2023/09/01 20:25:52;;;;;;;;;;;;;;;15.11;61.58;100859.05;106123;1287;59382;-86
2023/09/01 20:28:38;;;;;;;;;;;;;;;15.06;61.56;100861.50;106062;1291;73434;-85
2023/09/01 20:31:24;;;;;;;;;;;;;;;15.02;61.67;100861.96;106184;1288;69580;-85
2023/09/01 20:34:09;;;;;;;;;;;;;;;15.01;61.66;100867.75;105994;1292;71196;-85
2023/09/01 20:36:55;;;;;;;;;;;;;;;14.98;61.70;100866.09;106050;1290;59075;-85
2023/09/01 20:39:42;;;;;;;;;;;;;;;14.94;61.72;100869.35;106239;1288;58973;-85
2023/09/01 20:42:28;;;;;;;;;;;;;;;14.89;61.81;100872.95;106073;1291;73382;-85
2023/09/01 20:45:14;;;;;;;;;;;;;;;14.86;61.87;100868.36;106128;1288;67537;-85
2023/09/01 20:48:00;;;;;;;;;;;;;;;14.81;61.94;100865.03;106085;1288;71291;-84
2023/09/01 20:50:46;;;;;;;;;;;;;;;14.80;62.06;100865.77;106159;1289;59685;-86
2023/09/01 20:53:32;;;;;;;;;;;;;;;14.77;61.98;100860.11;106109;1289;59616;-85
2023/09/01 20:56:18;;;;;;;;;;;;;;;14.70;62.12;100857.37;106109;1289;72397;-85
2023/09/01 20:59:04;;;;;;;;;;;;;;;14.62;62.15;100856.74;106063;1289;67372;-85
2023/09/01 21:01:50;;;;;;;;;;;;;;;14.59;62.39;100859.08;106102;1289;71762;-85
2023/09/01 21:04:36;;;;;;;;;;;;;;;14.60;62.41;100863.91;106012;1290;59010;-85
2023/09/01 21:07:22;;;;;;;;;;;;;;;14.59;62.34;100868.45;106076;1289;59098;-86
2023/09/01 21:10:10;;;;;;;;;;;;;;;14.56;62.44;100861.24;106137;1289;74994;-85
2023/09/01 21:12:56;;;;;;;;;;;;;;;14.55;62.54;100862.48;106213;1289;67487;-85
2023/09/01 21:16:03;;;;;;;;;;;;;;;14.55;62.61;100867.38;106207;1288;71362;-87
2023/09/01 21:19:09;;;;;;;;;;;;;;;14.53;62.61;100870.19;106188;1288;60000;-87
2023/09/01 21:21:55;;;;;;;;;;;;;;;14.51;62.72;100875.66;106279;1288;59390;-86
2023/09/01 21:24:41;;;;;;;;;;;;;;;14.47;62.73;100878.19;106165;1288;75309;-86
2023/09/01 21:27:48;;;;;;;;;;;;;;;14.44;62.76;100874.10;106190;1291;67305;-90
2023/09/01 21:31:14;;;;;;;;;;;;;;;14.44;62.84;100875.48;106282;1289;72418;-90
2023/09/01 21:44:40;;;;;;;;;;;;;;;14.35;63.09;100884.02;106404;1288;71209;-89
2023/09/01 21:48:09;;;;;;;;;;;;;;;14.36;63.24;100890.25;106357;1288;59197;-89
2023/09/01 21:51:38;;;;;;;;;;;;;;;14.38;63.14;100892.80;106365;1288;59828;-89
2023/09/01 21:59:43;;;;;;;;;;;;;;;14.39;63.37;100893.11;106253;1289;72343;-89
2023/09/01 22:03:09;;;;;;;;;;;;;;;14.39;63.41;100891.05;106163;1288;59067;-89
2023/09/01 22:06:37;;;;;;;;;;;;;;;14.38;63.51;100896.61;106256;1289;59690;-90
2023/09/01 22:09:43;;;;;;;;;;;;;;;14.37;63.46;100898.38;106242;1288;74543;-90
2023/09/01 22:12:40;;;;;;;;;;;;;;;14.34;63.57;100897.59;106270;1293;67496;-90
